createdAt,value
2018-04-11T00:00:05.162Z,10.2
2018-04-11T00:15:04.631Z,10.1
2018-04-11T00:30:04.396Z,9.9
2018-04-11T00:45:04.350Z,9.9
2018-04-11T01:00:05.047Z,9.9
2018-04-11T01:15:04.530Z,9.8
2018-04-11T01:30:04.313Z,9.6
2018-04-11T01:45:04.785Z,9.5
2018-04-11T02:00:04.684Z,9.5
2018-04-11T02:15:04.562Z,9.3
2018-04-11T02:30:05.205Z,9.2
2018-04-11T02:45:04.683Z,9.3
2018-04-11T03:00:05.135Z,9.1
2018-04-11T03:15:05.014Z,8.9
2018-04-11T03:30:04.705Z,8.9
2018-04-11T03:45:05.115Z,8.7
2018-04-11T04:00:04.573Z,8.7
2018-04-11T04:15:04.496Z,8.6
2018-04-11T04:30:04.405Z,8.7
2018-04-11T04:45:05.264Z,8.6
2018-04-11T05:00:04.997Z,8.6
2018-04-11T05:15:05.019Z,8.5
2018-04-11T05:30:04.633Z,8.8
2018-04-11T05:45:05.009Z,9.2
2018-04-11T06:15:04.340Z,11.3
2018-04-11T06:30:04.927Z,11.9
2018-04-11T06:45:04.329Z,12.3
2018-04-11T07:00:04.340Z,13.8
2018-04-11T07:15:04.257Z,14.6
2018-04-11T07:30:04.491Z,16.1
2018-04-11T07:45:04.426Z,18.4
2018-04-11T08:00:04.927Z,24.9
2018-04-11T08:15:04.440Z,31.8
2018-04-11T08:30:04.690Z,35.1
2018-04-11T08:45:05.157Z,41.2
2018-04-11T09:00:05.059Z,42.6
2018-04-11T09:15:04.526Z,42.5
2018-04-11T09:30:04.672Z,41.5
2018-04-11T09:45:04.601Z,39.5
2018-04-11T10:00:04.512Z,28.7
2018-04-11T10:15:04.403Z,24
2018-04-11T10:30:04.542Z,22.7
2018-04-11T10:45:04.438Z,21.7
2018-04-11T11:00:04.320Z,21.2
2018-04-11T11:15:04.715Z,21
2018-04-11T11:30:04.338Z,20.8
2018-04-11T11:45:04.303Z,21
2018-04-11T12:00:04.716Z,21.2
2018-04-11T12:15:04.705Z,21.3
2018-04-11T12:30:04.990Z,21.6
2018-04-11T12:45:04.388Z,21.2
2018-04-11T13:00:04.388Z,21
2018-04-11T13:15:04.395Z,20.9
2018-04-11T13:30:05.208Z,21.3
2018-04-11T13:45:04.680Z,21.5
2018-04-11T14:00:05.120Z,21.9
2018-04-11T14:15:04.528Z,22
2018-04-11T14:30:04.671Z,22.2
2018-04-11T14:45:05.257Z,22.5
2018-04-11T15:00:04.810Z,22.7
2018-04-11T15:15:04.654Z,23
2018-04-11T15:30:04.951Z,23
2018-04-11T15:45:04.442Z,22.8
2018-04-11T16:00:04.907Z,22.7
2018-04-11T16:15:04.369Z,22.5
2018-04-11T16:30:04.582Z,22.2
2018-04-11T16:45:04.988Z,21.8
2018-04-11T17:00:05.010Z,21.4
2018-04-11T17:15:04.796Z,21.2
2018-04-11T17:30:05.237Z,20.9
2018-04-11T17:45:04.261Z,20.5
2018-04-11T18:00:04.869Z,20.4
2018-04-11T18:15:04.896Z,20.2
2018-04-11T18:30:04.692Z,20
2018-04-11T18:45:05.105Z,19.8
2018-04-11T19:00:05.217Z,19.6
2018-04-11T19:15:04.654Z,19.5
2018-04-11T19:30:04.767Z,19.2
2018-04-11T19:45:04.841Z,18.9
2018-04-11T20:00:04.707Z,18.6
2018-04-11T20:15:04.760Z,18.2
2018-04-11T20:30:04.828Z,18.1
2018-04-11T20:45:05.246Z,17.9
2018-04-11T21:00:05.335Z,17.7
2018-04-11T21:15:04.827Z,17.5
2018-04-11T21:30:05.231Z,17.2
2018-04-11T21:45:05.657Z,17
2018-04-11T22:00:04.821Z,16.9
2018-04-11T22:15:04.861Z,16.7
2018-04-11T22:30:05.255Z,16.5
2018-04-11T22:45:05.158Z,16.3
2018-04-11T23:00:04.689Z,16.1
2018-04-11T23:15:05.404Z,15.9
2018-04-11T23:30:05.216Z,15.8
2018-04-11T23:45:05.536Z,15.5
